Time;durP1;ratioP1;P1;durP2;ratioP2;P2;SDS_P1;SDS_P2;PMS_P1;PMS_P2;Temp;Humidity;BMP_temperature;BMP_pressure;BME280_temperature;BME280_humidity;BME280_pressure;Samples;Min_cycle;Max_cycle;Signal;HPM_P1;HPM_P2
2021/12/04 00:02:18;;;;;;;15.00;13.43;;;;;;;;;;5013983;28;20227;-75
2021/12/04 00:04:48;;;;;;;13.00;11.70;;;;;;;;;;5010071;28;20834;-75
2021/12/04 00:07:20;;;;;;;14.80;13.17;;;;;;;;;;4994585;28;20229;-75
2021/12/04 00:09:47;;;;;;;14.77;13.17;;;;;;;;;;5007242;28;20235;-75
2021/12/04 00:12:14;;;;;;;17.57;14.27;;;;;;;;;;5033609;28;20211;-76
2021/12/04 00:14:42;;;;;;;14.73;13.13;;;;;;;;;;5017253;28;20227;-73
2021/12/04 00:17:08;;;;;;;16.03;14.33;;;;;;;;;;4962143;28;20590;-76
2021/12/04 00:19:34;;;;;;;15.00;13.47;;;;;;;;;;5000614;28;20223;-75
2021/12/04 00:22:05;;;;;;;15.87;14.20;;;;;;;;;;5017637;28;20633;-74
2021/12/04 00:24:31;;;;;;;16.07;13.90;;;;;;;;;;5019139;28;20347;-75
2021/12/04 00:26:59;;;;;;;18.20;14.80;;;;;;;;;;5001848;28;20216;-75
2021/12/04 00:29:25;;;;;;;16.67;14.97;;;;;;;;;;5007804;28;20230;-75
2021/12/04 00:31:55;;;;;;;15.40;13.53;;;;;;;;;;5016974;28;20239;-75
2021/12/04 00:34:25;;;;;;;15.17;13.57;;;;;;;;;;5017093;28;20219;-75
2021/12/04 00:50:44;;;;;;;14.40;13.00;;;;;;;;;;5014754;28;20228;-76
2021/12/04 00:53:12;;;;;;;15.93;13.63;;;;;;;;;;5025725;28;20217;-76
2021/12/04 00:55:40;;;;;;;13.87;12.57;;;;;;;;;;4990528;28;20218;-75
2021/12/04 00:58:08;;;;;;;13.57;11.70;;;;;;;;;;5028742;28;20241;-76
2021/12/04 01:00:36;;;;;;;15.77;13.73;;;;;;;;;;4995168;28;20728;-76
2021/12/04 01:03:04;;;;;;;16.40;12.27;;;;;;;;;;5015226;28;20216;-76
2021/12/04 01:05:30;;;;;;;13.83;11.97;;;;;;;;;;5028041;28;20279;-75
2021/12/04 01:07:55;;;;;;;13.33;11.93;;;;;;;;;;4993290;28;20629;-75
2021/12/04 01:10:22;;;;;;;12.50;10.40;;;;;;;;;;5014126;28;20326;-76
2021/12/04 01:12:50;;;;;;;14.90;12.37;;;;;;;;;;5016583;28;20266;-74
2021/12/04 01:15:18;;;;;;;12.80;11.47;;;;;;;;;;5008640;28;20220;-75
2021/12/04 01:17:43;;;;;;;12.87;11.33;;;;;;;;;;5026209;28;20212;-73
2021/12/04 01:20:09;;;;;;;12.57;11.23;;;;;;;;;;5003403;28;20305;-75
2021/12/04 01:22:39;;;;;;;12.87;11.67;;;;;;;;;;5015809;28;20217;-74
2021/12/04 01:25:05;;;;;;;11.93;10.70;;;;;;;;;;5041422;28;20247;-76
2021/12/04 01:27:33;;;;;;;12.53;10.90;;;;;;;;;;5000144;28;20242;-76
2021/12/04 01:30:01;;;;;;;11.20;10.10;;;;;;;;;;5024019;28;20231;-73
2021/12/04 01:32:26;;;;;;;11.73;10.40;;;;;;;;;;5031860;28;20220;-75
2021/12/04 01:34:54;;;;;;;11.00;9.90;;;;;;;;;;5008416;28;20213;-74
2021/12/04 01:37:22;;;;;;;10.07;9.17;;;;;;;;;;4993197;28;20254;-75
2021/12/04 01:39:50;;;;;;;10.93;9.83;;;;;;;;;;5013591;28;20347;-75
2021/12/04 01:42:20;;;;;;;10.47;9.50;;;;;;;;;;4999139;28;20643;-73
2021/12/04 01:44:51;;;;;;;11.80;9.67;;;;;;;;;;5030330;28;20689;-75
2021/12/04 01:47:22;;;;;;;10.87;9.33;;;;;;;;;;4997276;28;20334;-76
2021/12/04 01:49:49;;;;;;;10.10;9.10;;;;;;;;;;4997503;28;20232;-75
2021/12/04 01:52:17;;;;;;;10.50;9.50;;;;;;;;;;5048285;28;20230;-74
2021/12/04 01:54:47;;;;;;;10.23;9.23;;;;;;;;;;5015674;28;20251;-75
2021/12/04 01:57:15;;;;;;;11.07;9.63;;;;;;;;;;4976703;28;20244;-76
2021/12/04 01:59:44;;;;;;;10.73;9.63;;;;;;;;;;5014128;28;20263;-75
2021/12/04 02:02:09;;;;;;;11.20;9.27;;;;;;;;;;5008626;28;20236;-76
2021/12/04 02:04:37;;;;;;;10.57;9.50;;;;;;;;;;5008662;28;21079;-75
2021/12/04 02:07:04;;;;;;;10.57;9.47;;;;;;;;;;5026262;28;20235;-73
2021/12/04 02:09:33;;;;;;;11.07;9.97;;;;;;;;;;5049545;28;20778;-76
2021/12/04 02:11:59;;;;;;;11.67;9.50;;;;;;;;;;5012634;28;20221;-76
2021/12/04 02:14:29;;;;;;;10.97;9.90;;;;;;;;;;5026988;28;20240;-75
2021/12/04 02:16:59;;;;;;;11.13;9.70;;;;;;;;;;5014523;28;20281;-75
2021/12/04 02:19:30;;;;;;;10.50;9.50;;;;;;;;;;5019580;28;20227;-76
2021/12/04 02:22:00;;;;;;;11.67;9.33;;;;;;;;;;5037647;28;20643;-75
2021/12/04 02:24:26;;;;;;;9.90;8.97;;;;;;;;;;5014592;28;20220;-76
2021/12/04 02:26:54;;;;;;;12.00;9.50;;;;;;;;;;5026419;28;20215;-75
2021/12/04 02:29:22;;;;;;;11.27;10.17;;;;;;;;;;5048677;28;20277;-76
2021/12/04 02:31:49;;;;;;;12.57;9.30;;;;;;;;;;5016772;28;20221;-74
2021/12/04 02:34:25;;;;;;;10.73;9.63;;;;;;;;;;4982352;28;20328;-76
2021/12/04 02:36:54;;;;;;;10.90;9.43;;;;;;;;;;4992074;28;20219;-75
2021/12/04 02:39:24;;;;;;;11.47;10.27;;;;;;;;;;5022570;28;20228;-73
2021/12/04 02:41:52;;;;;;;10.20;9.17;;;;;;;;;;5006317;28;20287;-76
2021/12/04 02:44:23;;;;;;;10.80;9.03;;;;;;;;;;4981397;28;20247;-73
2021/12/04 02:46:51;;;;;;;10.67;9.57;;;;;;;;;;5000295;28;20242;-75
2021/12/04 02:49:17;;;;;;;10.50;9.50;;;;;;;;;;5051460;28;20673;-76
2021/12/04 02:51:47;;;;;;;9.50;8.57;;;;;;;;;;5023543;28;20221;-76
2021/12/04 02:54:15;;;;;;;9.77;8.80;;;;;;;;;;5011912;28;20220;-75
2021/12/04 02:56:49;;;;;;;10.00;9.00;;;;;;;;;;5026246;28;20268;-76
2021/12/04 02:59:17;;;;;;;10.33;9.33;;;;;;;;;;5039783;28;20339;-75
2021/12/04 03:01:53;;;;;;;11.70;8.77;;;;;;;;;;5052769;28;20726;-75
2021/12/04 03:04:25;;;;;;;11.10;9.17;;;;;;;;;;5020360;28;20223;-75
2021/12/04 03:06:50;;;;;;;10.13;8.77;;;;;;;;;;5007935;28;20224;-75
2021/12/04 03:09:16;;;;;;;10.43;9.43;;;;;;;;;;4978499;28;20227;-75
2021/12/04 03:11:44;;;;;;;10.30;9.30;;;;;;;;;;5006079;28;20226;-74
2021/12/04 03:14:16;;;;;;;10.43;9.33;;;;;;;;;;5026736;28;20220;-75
2021/12/04 03:16:47;;;;;;;10.57;9.10;;;;;;;;;;5037830;28;20210;-75
2021/12/04 03:19:17;;;;;;;9.33;8.43;;;;;;;;;;5002360;28;20700;-75
2021/12/04 03:21:46;;;;;;;9.17;8.27;;;;;;;;;;5027179;28;20209;-75
2021/12/04 03:24:13;;;;;;;10.07;9.07;;;;;;;;;;4977786;28;20221;-75
2021/12/04 03:26:41;;;;;;;10.07;9.00;;;;;;;;;;4984520;28;20224;-75
2021/12/04 03:29:15;;;;;;;9.60;8.70;;;;;;;;;;5023586;28;20779;-75
2021/12/04 03:42:29;;;;;;;9.03;7.33;;;;;;;;;;5043032;28;20227;-75
2021/12/04 03:44:55;;;;;;;7.93;7.23;;;;;;;;;;4998575;28;20224;-75
2021/12/04 03:47:21;;;;;;;8.23;7.43;;;;;;;;;;5019227;28;20365;-75
2021/12/04 03:49:49;;;;;;;8.57;7.70;;;;;;;;;;5033907;28;20223;-74
2021/12/04 03:52:15;;;;;;;8.40;7.60;;;;;;;;;;5008984;28;20217;-76
2021/12/04 03:54:43;;;;;;;7.93;7.13;;;;;;;;;;4977839;28;20217;-75
2021/12/04 03:57:10;;;;;;;8.23;7.43;;;;;;;;;;4996865;28;20720;-75
2021/12/04 03:59:37;;;;;;;7.53;6.83;;;;;;;;;;5041347;28;20310;-75
2021/12/04 04:02:08;;;;;;;8.73;7.07;;;;;;;;;;5032947;28;20588;-77
2021/12/04 04:04:34;;;;;;;8.47;7.07;;;;;;;;;;5017098;28;20222;-74
2021/12/04 04:07:03;;;;;;;7.33;6.60;;;;;;;;;;5048448;28;20628;-76
2021/12/04 04:09:33;;;;;;;7.60;6.83;;;;;;;;;;4980889;28;20311;-76
2021/12/04 04:11:59;;;;;;;7.43;5.93;;;;;;;;;;5030043;28;20224;-76
2021/12/04 04:14:27;;;;;;;7.00;6.33;;;;;;;;;;5032203;28;20223;-77
2021/12/04 04:16:54;;;;;;;7.47;6.67;;;;;;;;;;5033447;28;20219;-75
2021/12/04 04:19:22;;;;;;;7.40;6.40;;;;;;;;;;5011283;28;20232;-75
2021/12/04 04:21:53;;;;;;;8.77;6.80;;;;;;;;;;4993503;28;20687;-73
2021/12/04 04:24:19;;;;;;;7.53;6.77;;;;;;;;;;5009721;28;20234;-75
2021/12/04 04:26:47;;;;;;;7.03;6.40;;;;;;;;;;5032909;28;20219;-74
2021/12/04 04:29:14;;;;;;;8.03;7.00;;;;;;;;;;5029229;28;20258;-75
2021/12/04 04:31:46;;;;;;;7.23;6.53;;;;;;;;;;5029643;28;20710;-75
2021/12/04 04:34:13;;;;;;;7.30;6.60;;;;;;;;;;4993520;28;20300;-75
2021/12/04 04:37:00;;;;;;;6.77;6.03;;;;;;;;;;4993101;28;20253;-75
2021/12/04 05:11:19;;;;;;;7.67;6.53;;;;;;;;;;5034906;28;20235;-75
2021/12/04 05:13:45;;;;;;;7.60;6.80;;;;;;;;;;5027546;28;20219;-76
2021/12/04 05:18:43;;;;;;;7.87;6.17;;;;;;;;;;5001443;28;20700;-76
2021/12/04 05:21:12;;;;;;;7.47;6.70;;;;;;;;;;5016532;28;20223;-76
2021/12/04 05:23:48;;;;;;;7.27;6.63;;;;;;;;;;5025417;28;20314;-75
2021/12/04 05:26:19;;;;;;;7.30;6.63;;;;;;;;;;4977218;28;20229;-75
2021/12/04 05:28:47;;;;;;;7.77;6.57;;;;;;;;;;4997494;28;20227;-76
2021/12/04 05:31:15;;;;;;;7.30;6.53;;;;;;;;;;5013235;28;20257;-76
2021/12/04 05:33:48;;;;;;;10.37;6.57;;;;;;;;;;5048769;28;20215;-75
2021/12/04 05:36:16;;;;;;;7.40;6.70;;;;;;;;;;5031352;28;20885;-75
2021/12/04 05:38:42;;;;;;;7.33;6.63;;;;;;;;;;5046562;28;20219;-75
2021/12/04 05:41:16;;;;;;;8.27;7.47;;;;;;;;;;4995714;28;20228;-75
2021/12/04 05:43:47;;;;;;;7.30;6.57;;;;;;;;;;5014720;28;20693;-75
2021/12/04 05:46:15;;;;;;;7.50;6.70;;;;;;;;;;5047867;28;20311;-75
2021/12/04 05:48:46;;;;;;;10.17;7.13;;;;;;;;;;5033566;28;20219;-75
2021/12/04 05:56:19;;;;;;;9.03;7.43;;;;;;;;;;5035065;28;20219;-75
2021/12/04 05:58:47;;;;;;;8.53;7.73;;;;;;;;;;5011793;28;20212;-75
2021/12/04 06:01:13;;;;;;;8.20;6.93;;;;;;;;;;5031694;28;20222;-76
2021/12/04 06:03:41;;;;;;;7.57;6.87;;;;;;;;;;5019408;28;20231;-75
2021/12/04 06:06:09;;;;;;;9.47;6.90;;;;;;;;;;5051480;28;20243;-75
2021/12/04 06:08:34;;;;;;;8.07;7.00;;;;;;;;;;5052454;28;20732;-74
2021/12/04 06:11:02;;;;;;;9.57;6.63;;;;;;;;;;5015033;28;20299;-74
2021/12/04 06:13:28;;;;;;;7.80;7.00;;;;;;;;;;4995633;28;20224;-75
2021/12/04 06:15:58;;;;;;;7.60;6.90;;;;;;;;;;4980405;28;20220;-76
2021/12/04 06:18:26;;;;;;;7.13;6.50;;;;;;;;;;5012179;28;20220;-76
2021/12/04 06:23:37;;;;;;;7.20;6.50;;;;;;;;;;5023169;28;20230;-76
2021/12/04 06:26:06;;;;;;;6.90;6.20;;;;;;;;;;5030796;28;20235;-75
2021/12/04 06:28:31;;;;;;;6.80;6.10;;;;;;;;;;5038995;28;20220;-75
2021/12/04 06:30:59;;;;;;;8.67;6.63;;;;;;;;;;4998501;28;20279;-75
2021/12/04 06:33:27;;;;;;;11.00;8.93;;;;;;;;;;5048769;28;20222;-75
2021/12/04 06:35:52;;;;;;;7.63;6.60;;;;;;;;;;5039103;28;20295;-75
2021/12/04 06:38:22;;;;;;;7.80;7.00;;;;;;;;;;4983317;28;20220;-75
2021/12/04 06:40:48;;;;;;;7.17;6.47;;;;;;;;;;5010050;28;20231;-75
2021/12/04 06:43:14;;;;;;;7.60;6.37;;;;;;;;;;5051014;28;20223;-75
2021/12/04 06:45:44;;;;;;;8.67;7.10;;;;;;;;;;5041673;28;20224;-74
2021/12/04 06:48:16;;;;;;;6.90;6.27;;;;;;;;;;4999151;28;20224;-75
2021/12/04 06:56:11;;;;;;;7.47;6.77;;;;;;;;;;5003070;28;20243;-75
2021/12/04 06:58:42;;;;;;;9.17;6.67;;;;;;;;;;5002893;28;20725;-75
2021/12/04 07:01:10;;;;;;;9.80;6.80;;;;;;;;;;5036783;28;20220;-75
2021/12/04 07:03:38;;;;;;;8.07;6.90;;;;;;;;;;5023306;28;20704;-75
2021/12/04 07:06:06;;;;;;;8.07;7.13;;;;;;;;;;4997989;28;20235;-75
2021/12/04 07:08:36;;;;;;;9.33;7.30;;;;;;;;;;5001486;28;20215;-75
2021/12/04 07:11:04;;;;;;;7.77;6.97;;;;;;;;;;5041787;28;20705;-75
2021/12/04 07:13:34;;;;;;;10.57;7.50;;;;;;;;;;5014754;28;20227;-75
2021/12/04 07:16:07;;;;;;;8.57;7.47;;;;;;;;;;5038904;28;20223;-75
2021/12/04 07:18:38;;;;;;;9.97;7.87;;;;;;;;;;5014468;28;20216;-75
2021/12/04 07:21:04;;;;;;;11.13;8.37;;;;;;;;;;5010515;28;20273;-75
2021/12/04 07:23:29;;;;;;;9.90;8.83;;;;;;;;;;5052232;28;20220;-75
2021/12/04 07:25:57;;;;;;;8.87;7.97;;;;;;;;;;5024600;28;20217;-76
2021/12/04 07:28:27;;;;;;;10.23;8.57;;;;;;;;;;5008687;28;20216;-74
2021/12/04 07:30:55;;;;;;;10.37;9.27;;;;;;;;;;4996214;28;20226;-76
2021/12/04 07:33:23;;;;;;;11.57;8.60;;;;;;;;;;5005870;28;20223;-75
2021/12/04 07:35:53;;;;;;;10.03;8.27;;;;;;;;;;5028577;28;20207;-75
2021/12/04 07:38:24;;;;;;;11.47;8.70;;;;;;;;;;5027741;28;20220;-76
2021/12/04 07:40:49;;;;;;;9.63;8.47;;;;;;;;;;5020724;28;20242;-75
2021/12/04 07:43:15;;;;;;;9.90;8.83;;;;;;;;;;5033688;28;20753;-75
2021/12/04 07:45:41;;;;;;;11.33;9.27;;;;;;;;;;5032490;28;20228;-75
2021/12/04 07:48:06;;;;;;;10.23;9.17;;;;;;;;;;4996598;28;20347;-75
2021/12/04 07:50:32;;;;;;;13.60;9.03;;;;;;;;;;5023056;28;20228;-76
2021/12/04 07:53:00;;;;;;;10.53;9.27;;;;;;;;;;5005495;28;20713;-74
2021/12/04 07:55:28;;;;;;;11.67;10.10;;;;;;;;;;5016620;28;20246;-74
2021/12/04 07:57:59;;;;;;;12.70;10.07;;;;;;;;;;5024065;28;20570;-74
2021/12/04 08:00:29;;;;;;;12.10;9.83;;;;;;;;;;5027187;28;20224;-75
2021/12/04 08:02:55;;;;;;;12.77;10.27;;;;;;;;;;5012288;28;20251;-74
2021/12/04 08:05:20;;;;;;;14.63;10.57;;;;;;;;;;5022378;28;20303;-75
2021/12/04 08:07:50;;;;;;;12.93;10.30;;;;;;;;;;5005110;28;20220;-74
2021/12/04 08:10:58;;;;;;;11.97;10.67;;;;;;;;;;5007190;28;20224;-74
2021/12/04 08:13:28;;;;;;;11.87;10.67;;;;;;;;;;5021036;28;20228;-74
2021/12/04 08:15:53;;;;;;;14.73;11.40;;;;;;;;;;5028428;28;20311;-75
2021/12/04 08:18:30;;;;;;;12.20;10.87;;;;;;;;;;4980818;28;20724;-76
2021/12/04 08:20:55;;;;;;;13.07;11.10;;;;;;;;;;5001775;28;20285;-75
2021/12/04 08:23:21;;;;;;;14.87;11.97;;;;;;;;;;5035776;28;20219;-73
2021/12/04 08:25:47;;;;;;;17.03;12.80;;;;;;;;;;5034939;28;20224;-72
2021/12/04 08:28:14;;;;;;;14.87;11.27;;;;;;;;;;5017841;28;20700;-72
2021/12/04 08:30:42;;;;;;;16.50;12.83;;;;;;;;;;5018672;28;20280;-73
2021/12/04 08:33:11;;;;;;;14.03;12.10;;;;;;;;;;5036662;28;20227;-73
2021/12/04 08:35:39;;;;;;;16.20;13.27;;;;;;;;;;5033376;28;20700;-73
2021/12/04 08:38:06;;;;;;;16.27;12.57;;;;;;;;;;5032976;28;20219;-73
2021/12/04 08:40:35;;;;;;;18.00;13.47;;;;;;;;;;5031408;28;20219;-72
2021/12/04 08:43:01;;;;;;;13.13;11.80;;;;;;;;;;5016754;28;20331;-72
2021/12/04 08:45:27;;;;;;;15.80;13.63;;;;;;;;;;5008276;28;20228;-72
2021/12/04 08:47:53;;;;;;;15.67;12.97;;;;;;;;;;5028649;28;20706;-74
2021/12/04 08:50:31;;;;;;;16.53;14.07;;;;;;;;;;5027694;28;20231;-74
2021/12/04 08:52:57;;;;;;;16.80;13.10;;;;;;;;;;4994237;28;20299;-73
2021/12/04 08:55:26;;;;;;;15.27;13.13;;;;;;;;;;5017422;28;20266;-75
2021/12/04 08:58:00;;;;;;;14.47;12.93;;;;;;;;;;5025015;28;20702;-73
2021/12/04 09:00:39;;;;;;;16.67;13.70;;;;;;;;;;5013128;28;20226;-73
2021/12/04 09:03:07;;;;;;;17.73;13.50;;;;;;;;;;5027205;28;20227;-73
2021/12/04 09:05:32;;;;;;;16.83;13.50;;;;;;;;;;5019467;28;20219;-72
2021/12/04 09:08:00;;;;;;;17.93;13.93;;;;;;;;;;5006398;28;20233;-72
2021/12/04 09:10:30;;;;;;;15.77;14.07;;;;;;;;;;4992462;28;20235;-73
2021/12/04 09:12:56;;;;;;;18.43;13.90;;;;;;;;;;5008765;28;20306;-74
2021/12/04 09:15:23;;;;;;;16.40;13.87;;;;;;;;;;5010861;28;20312;-73
2021/12/04 09:17:51;;;;;;;16.93;13.43;;;;;;;;;;5018660;28;20604;-71
2021/12/04 09:20:17;;;;;;;15.33;13.63;;;;;;;;;;5013620;28;20225;-73
2021/12/04 09:22:47;;;;;;;15.17;13.57;;;;;;;;;;4999280;28;20219;-72
2021/12/04 09:25:21;;;;;;;13.83;12.37;;;;;;;;;;5036812;28;20227;-73
2021/12/04 09:28:00;;;;;;;14.50;13.00;;;;;;;;;;5008587;28;20233;-72
2021/12/04 10:11:57;;;;;;;11.43;10.10;;;;;;;;;;5016378;28;20227;-72
2021/12/04 10:22:36;;;;;;;10.77;9.67;;;;;;;;;;5018227;28;20224;-73
2021/12/04 10:33:19;;;;;;;11.43;10.23;;;;;;;;;;5012177;28;20216;-73
2021/12/04 10:35:45;;;;;;;11.17;10.13;;;;;;;;;;5011558;28;20232;-73
2021/12/04 10:38:44;;;;;;;10.87;9.77;;;;;;;;;;4979515;28;20303;-72
2021/12/04 10:41:11;;;;;;;11.23;10.00;;;;;;;;;;5003255;28;20232;-72
2021/12/04 10:43:40;;;;;;;11.20;10.03;;;;;;;;;;5012006;28;20706;-73
2021/12/04 10:46:13;;;;;;;11.70;10.57;;;;;;;;;;5012620;28;20224;-73
2021/12/04 10:48:47;;;;;;;11.20;9.77;;;;;;;;;;5026537;28;20276;-72
2021/12/04 10:51:22;;;;;;;11.73;9.97;;;;;;;;;;5042388;28;20227;-73
2021/12/04 10:53:49;;;;;;;12.33;9.97;;;;;;;;;;5054279;28;20238;-73
2021/12/04 10:59:14;;;;;;;11.97;10.60;;;;;;;;;;5034089;28;20310;-74
2021/12/04 11:18:45;;;;;;;11.27;9.93;;;;;;;;;;4984069;28;20599;-73
2021/12/04 11:38:34;;;;;;;11.50;10.30;;;;;;;;;;4999467;28;20227;-73
2021/12/04 11:41:56;;;;;;;15.80;14.20;;;;;;;;;;5037543;28;20301;-73
2021/12/04 11:48:43;;;;;;;12.50;11.20;;;;;;;;;;4997301;28;20273;-75
2021/12/04 11:51:20;;;;;;;12.37;11.17;;;;;;;;;;5030023;28;20223;-73
2021/12/04 11:53:46;;;;;;;11.83;10.63;;;;;;;;;;4994798;28;20697;-72
2021/12/04 11:56:15;;;;;;;12.57;11.37;;;;;;;;;;4987475;28;20216;-71
2021/12/04 11:58:41;;;;;;;11.97;10.77;;;;;;;;;;5031584;28;20224;-73
2021/12/04 12:01:19;;;;;;;10.67;9.57;;;;;;;;;;5028631;28;20227;-73
2021/12/04 12:03:53;;;;;;;10.27;9.27;;;;;;;;;;5002684;28;20258;-73
2021/12/04 12:06:34;;;;;;;10.10;9.07;;;;;;;;;;4993560;28;20709;-73
2021/12/04 12:09:12;;;;;;;10.50;9.43;;;;;;;;;;5028015;28;20934;-73
2021/12/04 12:11:49;;;;;;;10.33;9.33;;;;;;;;;;5029300;28;20728;-73
2021/12/04 12:14:16;;;;;;;9.77;8.77;;;;;;;;;;5016419;28;20269;-72
2021/12/04 12:16:47;;;;;;;10.93;9.60;;;;;;;;;;5031682;28;20207;-73
2021/12/04 12:19:25;;;;;;;10.37;9.37;;;;;;;;;;5016189;28;20719;-72
2021/12/04 12:22:01;;;;;;;10.33;9.23;;;;;;;;;;5014706;28;20221;-72
2021/12/04 12:33:35;;;;;;;11.33;10.23;;;;;;;;;;5023395;28;20219;-72
2021/12/04 12:36:17;;;;;;;11.57;10.47;;;;;;;;;;5030703;28;20213;-72
2021/12/04 12:38:44;;;;;;;12.27;10.70;;;;;;;;;;5025029;28;20236;-72
2021/12/04 12:41:25;;;;;;;12.40;10.80;;;;;;;;;;5011593;28;20224;-73
2021/12/04 12:43:56;;;;;;;12.53;10.80;;;;;;;;;;5005422;28;20302;-73
2021/12/04 12:46:40;;;;;;;11.43;10.33;;;;;;;;;;5023820;28;23298;-75
2021/12/04 12:49:28;;;;;;;12.57;11.07;;;;;;;;;;5023808;28;20234;-73
2021/12/04 12:52:08;;;;;;;13.07;11.67;;;;;;;;;;5010908;28;20216;-75
2021/12/04 12:54:42;;;;;;;14.07;11.50;;;;;;;;;;5016543;28;20595;-74
2021/12/04 12:57:26;;;;;;;12.80;11.43;;;;;;;;;;5020432;28;20211;-73
2021/12/04 13:11:57;;;;;;;15.40;11.77;;;;;;;;;;5021925;28;20720;-72
2021/12/04 13:14:30;;;;;;;12.67;11.23;;;;;;;;;;5013692;28;20216;-72
2021/12/04 13:16:59;;;;;;;14.20;12.17;;;;;;;;;;4989900;28;20223;-72
2021/12/04 13:19:25;;;;;;;13.20;11.80;;;;;;;;;;5030499;28;20362;-72
2021/12/04 13:21:52;;;;;;;12.40;11.10;;;;;;;;;;5006680;28;20424;-72
2021/12/04 13:24:18;;;;;;;13.47;11.77;;;;;;;;;;5011584;28;20254;-73
2021/12/04 13:26:48;;;;;;;13.20;11.40;;;;;;;;;;4994473;28;20220;-74
2021/12/04 13:29:15;;;;;;;13.20;11.67;;;;;;;;;;4993365;28;20228;-73
2021/12/04 13:31:43;;;;;;;12.50;10.93;;;;;;;;;;5000447;28;20258;-74
2021/12/04 13:34:11;;;;;;;14.07;11.03;;;;;;;;;;5015762;28;20243;-72
2021/12/04 13:36:36;;;;;;;12.70;10.97;;;;;;;;;;5029563;28;20222;-73
2021/12/04 13:39:11;;;;;;;11.97;10.33;;;;;;;;;;5019349;28;20306;-73
2021/12/04 13:41:38;;;;;;;11.63;9.33;;;;;;;;;;5002403;28;20216;-72
2021/12/04 13:44:07;;;;;;;11.60;9.77;;;;;;;;;;5028038;28;20224;-73
2021/12/04 13:46:56;;;;;;;10.67;9.37;;;;;;;;;;5023884;28;20778;-72
2021/12/04 13:49:31;;;;;;;10.63;9.53;;;;;;;;;;5034031;28;20720;-72
2021/12/04 13:52:01;;;;;;;10.80;9.70;;;;;;;;;;5029450;28;20228;-73
2021/12/04 13:54:28;;;;;;;12.47;9.70;;;;;;;;;;4996063;28;20227;-73
2021/12/04 13:56:53;;;;;;;11.30;9.40;;;;;;;;;;5019873;28;20282;-73
2021/12/04 13:59:27;;;;;;;10.43;9.33;;;;;;;;;;5004153;28;20224;-73
2021/12/04 14:01:53;;;;;;;10.80;8.47;;;;;;;;;;4990812;28;20208;-73
2021/12/04 14:04:24;;;;;;;10.33;9.23;;;;;;;;;;5034302;28;20294;-74
2021/12/04 14:06:56;;;;;;;12.33;9.67;;;;;;;;;;5040477;28;20239;-72
2021/12/04 14:09:23;;;;;;;9.50;8.37;;;;;;;;;;5031558;28;20773;-73
2021/12/04 14:11:54;;;;;;;11.00;9.37;;;;;;;;;;5005573;28;20212;-73
2021/12/04 14:14:23;;;;;;;10.83;9.67;;;;;;;;;;5026501;28;20220;-73
2021/12/04 14:16:54;;;;;;;10.63;9.53;;;;;;;;;;5027945;28;20215;-72
2021/12/04 14:19:31;;;;;;;11.23;10.07;;;;;;;;;;5034467;28;20231;-73
2021/12/04 14:22:10;;;;;;;12.13;10.67;;;;;;;;;;5004939;28;20273;-73
2021/12/04 14:24:43;;;;;;;11.27;10.17;;;;;;;;;;5038954;28;20314;-73
2021/12/04 14:27:30;;;;;;;11.20;10.00;;;;;;;;;;5010231;28;20224;-73
2021/12/04 14:30:06;;;;;;;11.57;10.17;;;;;;;;;;5026346;28;20731;-73
2021/12/04 14:32:32;;;;;;;11.53;10.33;;;;;;;;;;5036295;28;20279;-72
2021/12/04 14:35:00;;;;;;;12.10;10.80;;;;;;;;;;5032943;28;20582;-71
2021/12/04 14:37:28;;;;;;;14.60;10.23;;;;;;;;;;5024606;28;20715;-72
2021/12/04 14:39:55;;;;;;;13.03;10.23;;;;;;;;;;5026416;28;20225;-72
2021/12/04 14:42:27;;;;;;;12.50;10.40;;;;;;;;;;5025311;28;20224;-73
2021/12/04 14:44:55;;;;;;;12.13;10.87;;;;;;;;;;4995137;28;20602;-72
2021/12/04 14:47:27;;;;;;;12.53;11.17;;;;;;;;;;4998731;28;20232;-72
2021/12/04 14:49:58;;;;;;;13.00;10.77;;;;;;;;;;5011780;28;20225;-73
2021/12/04 14:52:27;;;;;;;14.57;12.03;;;;;;;;;;5017209;28;20222;-72
2021/12/04 14:54:58;;;;;;;13.70;10.80;;;;;;;;;;5028946;28;20760;-71
2021/12/04 14:57:26;;;;;;;12.50;10.70;;;;;;;;;;5042808;28;20215;-71
2021/12/04 15:00:11;;;;;;;12.37;10.13;;;;;;;;;;5034953;28;20230;-73
2021/12/04 15:02:37;;;;;;;11.10;9.90;;;;;;;;;;5031714;28;20228;-73
2021/12/04 15:05:07;;;;;;;11.43;10.33;;;;;;;;;;5038349;28;20693;-72
2021/12/04 15:07:36;;;;;;;14.07;10.30;;;;;;;;;;5019825;28;20597;-74
2021/12/04 15:10:17;;;;;;;11.57;10.23;;;;;;;;;;5034959;28;20306;-71
2021/12/04 15:12:45;;;;;;;11.60;9.47;;;;;;;;;;5035098;28;20239;-73
2021/12/04 15:15:13;;;;;;;10.63;9.60;;;;;;;;;;5000632;28;20732;-72
2021/12/04 15:17:42;;;;;;;11.87;9.30;;;;;;;;;;5043015;28;20640;-73
2021/12/04 15:20:17;;;;;;;11.73;9.47;;;;;;;;;;5011536;28;20239;-72
2021/12/04 15:22:46;;;;;;;10.13;8.97;;;;;;;;;;5011864;28;20251;-72
2021/12/04 15:25:18;;;;;;;9.83;8.73;;;;;;;;;;5013197;28;20219;-73
2021/12/04 15:27:44;;;;;;;9.70;8.57;;;;;;;;;;5027792;28;20288;-73
2021/12/04 15:30:14;;;;;;;10.23;8.43;;;;;;;;;;4990028;28;20224;-73
2021/12/04 15:32:42;;;;;;;10.37;8.40;;;;;;;;;;4993478;28;20682;-74
2021/12/04 15:35:21;;;;;;;9.60;8.43;;;;;;;;;;5016641;28;20223;-71
2021/12/04 15:37:50;;;;;;;10.10;8.80;;;;;;;;;;5032803;28;20876;-73
2021/12/04 15:40:31;;;;;;;10.63;8.80;;;;;;;;;;5048117;28;20274;-73
2021/12/04 15:43:13;;;;;;;9.87;8.87;;;;;;;;;;5031153;28;20231;-72
2021/12/04 15:45:53;;;;;;;10.83;8.77;;;;;;;;;;5015212;28;20220;-73
2021/12/04 15:51:46;;;;;;;10.23;9.07;;;;;;;;;;5025964;28;20251;-74
2021/12/04 15:54:16;;;;;;;11.77;9.40;;;;;;;;;;5017524;28;20223;-71
2021/12/04 15:56:47;;;;;;;11.07;9.07;;;;;;;;;;5025287;28;20211;-73
2021/12/04 15:59:22;;;;;;;11.67;10.00;;;;;;;;;;5035144;28;20306;-73
2021/12/04 16:01:50;;;;;;;10.40;9.30;;;;;;;;;;5025846;28;20304;-71
2021/12/04 16:04:27;;;;;;;10.47;9.37;;;;;;;;;;5041285;28;20218;-73
2021/12/04 16:06:55;;;;;;;10.53;9.43;;;;;;;;;;5016822;28;20231;-72
2021/12/04 16:09:25;;;;;;;10.43;9.27;;;;;;;;;;5037806;28;20227;-73
2021/12/04 16:12:00;;;;;;;10.37;9.37;;;;;;;;;;5012490;28;20211;-71
2021/12/04 16:14:48;;;;;;;9.53;8.50;;;;;;;;;;5006523;28;20214;-74
2021/12/04 16:17:16;;;;;;;11.77;9.03;;;;;;;;;;5001604;28;20247;-72
2021/12/04 16:19:45;;;;;;;9.37;8.47;;;;;;;;;;5040955;28;20302;-71
2021/12/04 16:22:16;;;;;;;10.10;8.80;;;;;;;;;;5024834;28;20223;-74
2021/12/04 16:24:43;;;;;;;9.20;8.23;;;;;;;;;;5032668;28;20298;-72
2021/12/04 16:27:20;;;;;;;9.17;8.27;;;;;;;;;;5007981;28;20304;-73
2021/12/04 16:35:39;;;;;;;10.83;8.90;;;;;;;;;;5003978;28;20228;-71
2021/12/04 16:38:07;;;;;;;9.87;8.87;;;;;;;;;;5000352;28;20226;-73
2021/12/04 16:40:37;;;;;;;11.20;9.70;;;;;;;;;;5009725;28;20223;-73
2021/12/04 16:43:11;;;;;;;10.87;8.60;;;;;;;;;;5009429;28;20232;-73
2021/12/04 16:45:48;;;;;;;9.90;8.90;;;;;;;;;;4999628;28;20228;-73
2021/12/04 16:48:14;;;;;;;10.13;9.10;;;;;;;;;;4992954;28;20224;-74
2021/12/04 16:54:50;;;;;;;11.17;10.03;;;;;;;;;;4997483;28;20227;-72
2021/12/04 16:58:58;;;;;;;11.43;10.23;;;;;;;;;;4998749;28;20277;-73
2021/12/04 17:01:24;;;;;;;12.87;10.30;;;;;;;;;;5010272;28;20242;-71
2021/12/04 17:03:49;;;;;;;11.73;10.10;;;;;;;;;;5032209;28;20215;-71
2021/12/04 17:06:15;;;;;;;12.60;10.53;;;;;;;;;;5015519;28;20710;-73
2021/12/04 17:08:43;;;;;;;13.53;10.07;;;;;;;;;;5004934;28;20208;-73
2021/12/04 17:11:11;;;;;;;10.40;8.70;;;;;;;;;;5016712;28;20213;-71
2021/12/04 17:13:41;;;;;;;12.97;9.07;;;;;;;;;;5024012;28;20217;-71
2021/12/04 17:16:07;;;;;;;11.53;9.37;;;;;;;;;;4982949;28;20223;-72
2021/12/04 17:18:40;;;;;;;10.67;9.57;;;;;;;;;;5037900;28;20220;-73
2021/12/04 17:21:08;;;;;;;10.53;9.43;;;;;;;;;;4998711;28;20290;-71
2021/12/04 17:23:33;;;;;;;11.40;8.90;;;;;;;;;;4993026;28;20251;-71
2021/12/04 17:26:01;;;;;;;10.77;9.67;;;;;;;;;;4995366;28;20666;-72
2021/12/04 17:28:34;;;;;;;11.27;9.80;;;;;;;;;;5002022;28;20299;-72
2021/12/04 17:31:03;;;;;;;10.97;9.53;;;;;;;;;;5020201;28;20231;-72
2021/12/04 17:33:31;;;;;;;11.63;9.67;;;;;;;;;;5012425;28;20222;-72
2021/12/04 17:35:56;;;;;;;11.20;9.20;;;;;;;;;;5010028;28;20220;-72
2021/12/04 17:38:24;;;;;;;9.83;8.63;;;;;;;;;;5037541;28;20627;-72
2021/12/04 17:40:52;;;;;;;10.40;8.57;;;;;;;;;;5039981;28;20294;-72
2021/12/04 17:43:18;;;;;;;8.63;7.73;;;;;;;;;;5025242;28;20235;-72
2021/12/04 17:45:46;;;;;;;7.87;7.03;;;;;;;;;;5018701;28;20723;-73
2021/12/04 17:48:14;;;;;;;8.50;7.00;;;;;;;;;;5051910;28;20240;-73
2021/12/04 17:50:42;;;;;;;8.07;7.27;;;;;;;;;;5000434;28;20609;-72
2021/12/04 17:53:11;;;;;;;8.97;7.77;;;;;;;;;;5007437;28;20228;-72
2021/12/04 17:55:36;;;;;;;10.23;7.50;;;;;;;;;;4989472;28;20217;-72
2021/12/04 17:58:02;;;;;;;10.93;9.13;;;;;;;;;;4996837;28;20221;-72
2021/12/04 18:00:38;;;;;;;10.10;9.07;;;;;;;;;;4990731;28;20240;-73
2021/12/04 18:03:07;;;;;;;10.53;9.40;;;;;;;;;;4998145;28;20231;-73
2021/12/04 18:05:34;;;;;;;12.57;9.33;;;;;;;;;;5025761;28;20250;-72
2021/12/04 18:08:00;;;;;;;12.40;9.93;;;;;;;;;;5041144;28;20255;-72
2021/12/04 18:10:28;;;;;;;10.73;9.60;;;;;;;;;;5020219;28;20224;-72
2021/12/04 18:12:58;;;;;;;12.60;10.77;;;;;;;;;;5023650;28;20315;-71